sensor_id;sensor_type;location;lat;lon;timestamp;P1;durP1;ratioP1;P2;durP2;ratioP2
20161;SDS011;51382;53.180;15.414;2024-02-23T00:09:34;60.60;;;7.90;;
20161;SDS011;51382;53.180;15.414;2024-02-23T00:24:43;45.30;;;5.30;;
20161;SDS011;51382;53.180;15.414;2024-02-23T00:39:52;46.00;;;6.70;;
20161;SDS011;51382;53.180;15.414;2024-02-23T00:55:01;37.90;;;5.70;;
20161;SDS011;51382;53.180;15.414;2024-02-23T01:10:10;35.40;;;5.50;;
20161;SDS011;51382;53.180;15.414;2024-02-23T01:25:18;44.70;;;6.20;;
20161;SDS011;51382;53.180;15.414;2024-02-23T01:40:27;67.80;;;8.00;;
20161;SDS011;51382;53.180;15.414;2024-02-23T01:55:37;38.10;;;4.00;;
20161;SDS011;51382;53.180;15.414;2024-02-23T02:10:49;35.30;;;3.70;;
20161;SDS011;51382;53.180;15.414;2024-02-23T02:25:59;43.80;;;5.90;;
20161;SDS011;51382;53.180;15.414;2024-02-23T02:41:08;56.10;;;7.60;;
20161;SDS011;51382;53.180;15.414;2024-02-23T02:56:17;43.10;;;6.20;;
20161;SDS011;51382;53.180;15.414;2024-02-23T03:11:25;36.00;;;4.80;;
20161;SDS011;51382;53.180;15.414;2024-02-23T03:26:29;41.30;;;5.40;;
20161;SDS011;51382;53.180;15.414;2024-02-23T03:41:38;48.60;;;6.80;;
20161;SDS011;51382;53.180;15.414;2024-02-23T03:56:46;47.60;;;6.40;;
20161;SDS011;51382;53.180;15.414;2024-02-23T04:11:55;34.70;;;4.20;;
20161;SDS011;51382;53.180;15.414;2024-02-23T04:26:59;49.20;;;6.10;;
20161;SDS011;51382;53.180;15.414;2024-02-23T04:42:07;52.00;;;6.10;;
20161;SDS011;51382;53.180;15.414;2024-02-23T04:57:17;43.30;;;5.30;;
20161;SDS011;51382;53.180;15.414;2024-02-23T05:12:25;39.80;;;5.20;;
20161;SDS011;51382;53.180;15.414;2024-02-23T05:27:34;40.30;;;5.20;;
20161;SDS011;51382;53.180;15.414;2024-02-23T05:42:42;42.10;;;5.40;;
20161;SDS011;51382;53.180;15.414;2024-02-23T05:57:51;25.90;;;4.10;;
20161;SDS011;51382;53.180;15.414;2024-02-23T06:12:59;59.40;;;6.60;;
20161;SDS011;51382;53.180;15.414;2024-02-23T06:28:08;54.50;;;6.60;;
20161;SDS011;51382;53.180;15.414;2024-02-23T06:43:17;61.10;;;7.60;;
20161;SDS011;51382;53.180;15.414;2024-02-23T06:58:26;52.80;;;7.20;;
20161;SDS011;51382;53.180;15.414;2024-02-23T07:13:35;42.70;;;6.00;;
20161;SDS011;51382;53.180;15.414;2024-02-23T07:28:44;56.40;;;8.60;;
20161;SDS011;51382;53.180;15.414;2024-02-23T07:43:52;160.70;;;16.50;;
20161;SDS011;51382;53.180;15.414;2024-02-23T07:58:56;41.90;;;6.30;;
20161;SDS011;51382;53.180;15.414;2024-02-23T08:14:05;59.70;;;6.50;;
20161;SDS011;51382;53.180;15.414;2024-02-23T08:29:14;43.30;;;5.20;;
20161;SDS011;51382;53.180;15.414;2024-02-23T08:44:23;77.40;;;8.20;;
20161;SDS011;51382;53.180;15.414;2024-02-23T08:59:32;45.00;;;5.00;;
20161;SDS011;51382;53.180;15.414;2024-02-23T09:14:40;42.00;;;5.00;;
20161;SDS011;51382;53.180;15.414;2024-02-23T09:29:52;32.60;;;4.40;;
20161;SDS011;51382;53.180;15.414;2024-02-23T09:45:01;35.30;;;4.60;;
20161;SDS011;51382;53.180;15.414;2024-02-23T10:00:13;32.40;;;6.10;;
20161;SDS011;51382;53.180;15.414;2024-02-23T10:15:23;56.40;;;13.80;;
20161;SDS011;51382;53.180;15.414;2024-02-23T10:30:32;54.50;;;7.70;;
20161;SDS011;51382;53.180;15.414;2024-02-23T10:45:42;47.50;;;6.00;;
20161;SDS011;51382;53.180;15.414;2024-02-23T11:00:51;59.10;;;7.10;;
20161;SDS011;51382;53.180;15.414;2024-02-23T11:16:04;47.00;;;6.50;;
20161;SDS011;51382;53.180;15.414;2024-02-23T11:31:13;33.60;;;4.60;;
20161;SDS011;51382;53.180;15.414;2024-02-23T11:46:23;31.60;;;4.70;;
20161;SDS011;51382;53.180;15.414;2024-02-23T12:01:29;53.30;;;7.20;;
20161;SDS011;51382;53.180;15.414;2024-02-23T12:16:40;54.30;;;6.50;;
20161;SDS011;51382;53.180;15.414;2024-02-23T12:31:49;50.30;;;7.70;;
20161;SDS011;51382;53.180;15.414;2024-02-23T12:46:57;45.40;;;5.50;;
20161;SDS011;51382;53.180;15.414;2024-02-23T13:02:09;43.20;;;5.20;;
20161;SDS011;51382;53.180;15.414;2024-02-23T13:17:19;59.20;;;20.20;;
20161;SDS011;51382;53.180;15.414;2024-02-23T13:32:23;35.90;;;5.50;;
20161;SDS011;51382;53.180;15.414;2024-02-23T13:47:31;47.80;;;6.00;;
20161;SDS011;51382;53.180;15.414;2024-02-23T14:02:40;48.90;;;10.10;;
20161;SDS011;51382;53.180;15.414;2024-02-23T14:17:49;47.60;;;7.20;;
20161;SDS011;51382;53.180;15.414;2024-02-23T14:32:57;65.70;;;12.40;;
20161;SDS011;51382;53.180;15.414;2024-02-23T14:48:09;68.90;;;14.30;;
20161;SDS011;51382;53.180;15.414;2024-02-23T15:03:18;83.00;;;20.60;;
20161;SDS011;51382;53.180;15.414;2024-02-23T15:18:26;46.60;;;9.30;;
20161;SDS011;51382;53.180;15.414;2024-02-23T15:33:31;62.80;;;9.10;;
20161;SDS011;51382;53.180;15.414;2024-02-23T15:48:39;69.80;;;20.80;;
20161;SDS011;51382;53.180;15.414;2024-02-23T16:03:48;39.80;;;8.20;;
20161;SDS011;51382;53.180;15.414;2024-02-23T16:18:56;60.10;;;25.10;;
20161;SDS011;51382;53.180;15.414;2024-02-23T16:34:05;72.60;;;15.70;;
20161;SDS011;51382;53.180;15.414;2024-02-23T16:49:13;166.80;;;52.30;;
20161;SDS011;51382;53.180;15.414;2024-02-23T17:04:22;112.00;;;40.30;;
20161;SDS011;51382;53.180;15.414;2024-02-23T17:19:30;214.30;;;86.10;;
20161;SDS011;51382;53.180;15.414;2024-02-23T17:34:39;97.50;;;29.30;;
20161;SDS011;51382;53.180;15.414;2024-02-23T17:49:48;123.10;;;56.50;;
20161;SDS011;51382;53.180;15.414;2024-02-23T18:04:57;132.60;;;58.00;;
20161;SDS011;51382;53.180;15.414;2024-02-23T18:20:08;123.60;;;42.30;;
20161;SDS011;51382;53.180;15.414;2024-02-23T18:35:17;109.10;;;38.80;;
20161;SDS011;51382;53.180;15.414;2024-02-23T18:50:26;127.90;;;37.20;;
20161;SDS011;51382;53.180;15.414;2024-02-23T19:05:35;141.20;;;49.30;;
20161;SDS011;51382;53.180;15.414;2024-02-23T19:20:44;65.60;;;16.40;;
20161;SDS011;51382;53.180;15.414;2024-02-23T19:35:53;76.70;;;20.10;;
20161;SDS011;51382;53.180;15.414;2024-02-23T19:51:04;148.60;;;62.80;;
20161;SDS011;51382;53.180;15.414;2024-02-23T20:06:15;109.50;;;41.50;;
20161;SDS011;51382;53.180;15.414;2024-02-23T20:21:19;86.80;;;30.50;;
20161;SDS011;51382;53.180;15.414;2024-02-23T20:36:27;122.20;;;45.30;;
20161;SDS011;51382;53.180;15.414;2024-02-23T20:51:36;80.00;;;25.70;;
20161;SDS011;51382;53.180;15.414;2024-02-23T21:06:45;63.90;;;15.60;;
20161;SDS011;51382;53.180;15.414;2024-02-23T21:54:57;67.10;;;14.70;;
20161;SDS011;51382;53.180;15.414;2024-02-23T22:10:08;43.40;;;9.60;;
20161;SDS011;51382;53.180;15.414;2024-02-23T22:25:18;57.50;;;11.80;;
20161;SDS011;51382;53.180;15.414;2024-02-23T22:40:27;36.70;;;12.80;;
20161;SDS011;51382;53.180;15.414;2024-02-23T22:55:37;51.50;;;14.30;;
20161;SDS011;51382;53.180;15.414;2024-02-23T23:10:45;43.80;;;15.60;;
20161;SDS011;51382;53.180;15.414;2024-02-23T23:25:54;64.80;;;21.30;;
20161;SDS011;51382;53.180;15.414;2024-02-23T23:40:58;50.80;;;14.40;;
20161;SDS011;51382;53.180;15.414;2024-02-23T23:56:09;42.80;;;9.50;;
